sensor_id;sensor_type;location;lat;lon;timestamp;pressure;altitude;pressure_sealevel;temperature;humidity
58088;BME280;43884;49.152;8.302;2024-01-27T07:51:26;102443.13;;;2.00;80.66
58088;BME280;43884;49.152;8.302;2024-01-27T09:45:12;102450.81;;;5.48;76.77
58088;BME280;43884;49.152;8.302;2024-01-27T09:47:38;102443.13;;;5.81;76.21
58088;BME280;43884;49.152;8.302;2024-01-27T09:50:05;102441.88;;;6.11;74.75
58088;BME280;43884;49.152;8.302;2024-01-27T09:52:32;102434.56;;;5.87;74.56
58088;BME280;43884;49.152;8.302;2024-01-27T09:54:58;102434.78;;;6.21;74.57
58088;BME280;43884;49.152;8.302;2024-01-27T09:57:25;102435.22;;;6.15;74.46
58088;BME280;43884;49.152;8.302;2024-01-27T09:59:51;102422.03;;;6.23;75.15
58088;BME280;43884;49.152;8.302;2024-01-27T10:02:18;102436.94;;;5.78;76.56
58088;BME280;43884;49.152;8.302;2024-01-27T10:04:47;102429.06;;;6.26;76.39
58088;BME280;43884;49.152;8.302;2024-01-27T10:07:14;102416.97;;;6.43;75.11
58088;BME280;43884;49.152;8.302;2024-01-27T10:09:40;102402.00;;;6.50;74.89
58088;BME280;43884;49.152;8.302;2024-01-27T10:12:07;102412.25;;;6.33;75.98
58088;BME280;43884;49.152;8.302;2024-01-27T10:14:40;102408.38;;;6.96;75.30
58088;BME280;43884;49.152;8.302;2024-01-27T10:17:10;102419.03;;;6.39;74.67
58088;BME280;43884;49.152;8.302;2024-01-27T10:19:36;102414.84;;;6.82;74.71
58088;BME280;43884;49.152;8.302;2024-01-27T10:22:04;102416.25;;;6.99;74.40
58088;BME280;43884;49.152;8.302;2024-01-27T10:24:33;102416.53;;;7.19;73.94
58088;BME280;43884;49.152;8.302;2024-01-27T10:27:03;102422.91;;;6.59;76.24
58088;BME280;43884;49.152;8.302;2024-01-27T10:29:30;102427.59;;;7.05;75.67
58088;BME280;43884;49.152;8.302;2024-01-27T10:32:06;102424.00;;;7.04;75.07
58088;BME280;43884;49.152;8.302;2024-01-27T10:34:33;102422.97;;;6.82;74.81
58088;BME280;43884;49.152;8.302;2024-01-27T10:36:59;102426.91;;;6.78;75.17
58088;BME280;43884;49.152;8.302;2024-01-27T10:39:26;102417.13;;;6.53;75.07
58088;BME280;43884;49.152;8.302;2024-01-27T10:41:52;102402.13;;;7.30;72.94
58088;BME280;43884;49.152;8.302;2024-01-27T10:44:19;102391.56;;;8.05;70.94
58088;BME280;43884;49.152;8.302;2024-01-27T10:46:46;102389.97;;;7.24;71.58
58088;BME280;43884;49.152;8.302;2024-01-27T10:49:14;102377.44;;;7.90;71.15
58088;BME280;43884;49.152;8.302;2024-01-27T10:51:43;102372.63;;;7.94;71.23
58088;BME280;43884;49.152;8.302;2024-01-27T10:54:10;102377.13;;;8.16;71.70
58088;BME280;43884;49.152;8.302;2024-01-27T10:56:38;102369.72;;;8.18;69.76
58088;BME280;43884;49.152;8.302;2024-01-27T10:59:08;102363.91;;;8.56;69.18
58088;BME280;43884;49.152;8.302;2024-01-27T11:01:36;102375.56;;;7.47;69.64
58088;BME280;43884;49.152;8.302;2024-01-27T11:04:04;102387.78;;;7.85;70.92
58088;BME280;43884;49.152;8.302;2024-01-27T11:06:31;102374.31;;;8.39;70.42
58088;BME280;43884;49.152;8.302;2024-01-27T11:08:58;102367.69;;;7.99;69.48
58088;BME280;43884;49.152;8.302;2024-01-27T11:11:25;102373.25;;;9.15;69.24
58088;BME280;43884;49.152;8.302;2024-01-27T11:13:52;102380.72;;;8.05;68.99
58088;BME280;43884;49.152;8.302;2024-01-27T11:16:19;102374.03;;;8.21;68.52
58088;BME280;43884;49.152;8.302;2024-01-27T11:18:47;102374.78;;;8.44;67.79
58088;BME280;43884;49.152;8.302;2024-01-27T11:21:14;102361.59;;;7.86;66.09
58088;BME280;43884;49.152;8.302;2024-01-27T11:23:41;102364.44;;;8.17;67.30
58088;BME280;43884;49.152;8.302;2024-01-27T11:26:08;102362.19;;;9.38;66.69
58088;BME280;43884;49.152;8.302;2024-01-27T11:28:35;102361.28;;;8.33;66.32
58088;BME280;43884;49.152;8.302;2024-01-27T11:31:03;102360.03;;;8.04;67.08
58088;BME280;43884;49.152;8.302;2024-01-27T11:33:29;102357.88;;;8.52;68.05
58088;BME280;43884;49.152;8.302;2024-01-27T11:35:59;102349.94;;;9.54;66.57
58088;BME280;43884;49.152;8.302;2024-01-27T11:38:26;102347.72;;;9.79;65.48
58088;BME280;43884;49.152;8.302;2024-01-27T11:40:53;102346.16;;;8.73;67.64
58088;BME280;43884;49.152;8.302;2024-01-27T11:43:19;102340.66;;;9.57;66.99
58088;BME280;43884;49.152;8.302;2024-01-27T11:45:58;102324.56;;;10.14;65.78
58088;BME280;43884;49.152;8.302;2024-01-27T11:48:25;102324.25;;;9.58;66.52
58088;BME280;43884;49.152;8.302;2024-01-27T11:51:07;102329.84;;;9.76;65.86
58088;BME280;43884;49.152;8.302;2024-01-27T11:53:34;102327.00;;;9.98;65.54
58088;BME280;43884;49.152;8.302;2024-01-27T11:56:01;102314.97;;;10.59;63.11
58088;BME280;43884;49.152;8.302;2024-01-27T11:58:27;102301.81;;;10.05;63.12
58088;BME280;43884;49.152;8.302;2024-01-27T12:00:54;102304.69;;;9.64;64.34
58088;BME280;43884;49.152;8.302;2024-01-27T12:03:20;102296.06;;;10.58;62.91
58088;BME280;43884;49.152;8.302;2024-01-27T12:05:47;102291.09;;;10.81;62.50
58088;BME280;43884;49.152;8.302;2024-01-27T12:08:13;102276.31;;;10.36;61.10
58088;BME280;43884;49.152;8.302;2024-01-27T12:10:40;102285.16;;;10.68;60.16
58088;BME280;43884;49.152;8.302;2024-01-27T12:13:06;102292.66;;;10.16;61.02
58088;BME280;43884;49.152;8.302;2024-01-27T12:15:33;102289.38;;;9.93;61.70
58088;BME280;43884;49.152;8.302;2024-01-27T12:17:59;102297.53;;;10.13;62.52
58088;BME280;43884;49.152;8.302;2024-01-27T12:20:25;102286.16;;;10.67;60.13
58088;BME280;43884;49.152;8.302;2024-01-27T12:23:07;102288.66;;;10.20;60.40
58088;BME280;43884;49.152;8.302;2024-01-27T12:25:34;102291.81;;;10.26;60.98
58088;BME280;43884;49.152;8.302;2024-01-27T12:28:17;102309.38;;;10.51;61.20
58088;BME280;43884;49.152;8.302;2024-01-27T12:30:53;102316.44;;;10.04;62.95
58088;BME280;43884;49.152;8.302;2024-01-27T12:33:31;102316.13;;;10.07;62.89
58088;BME280;43884;49.152;8.302;2024-01-27T12:36:17;102298.22;;;10.34;62.21
58088;BME280;43884;49.152;8.302;2024-01-27T12:38:56;102305.94;;;10.97;61.93
58088;BME280;43884;49.152;8.302;2024-01-27T12:41:36;102306.69;;;10.89;62.39
58088;BME280;43884;49.152;8.302;2024-01-27T12:44:14;102295.16;;;10.77;61.00
58088;BME280;43884;49.152;8.302;2024-01-27T12:49:39;102290.22;;;10.43;61.66
58088;BME280;43884;49.152;8.302;2024-01-27T12:52:11;102286.22;;;10.37;62.16
58088;BME280;43884;49.152;8.302;2024-01-27T12:54:56;102278.69;;;10.69;60.96
58088;BME280;43884;49.152;8.302;2024-01-27T12:57:47;102279.69;;;10.68;60.71
58088;BME280;43884;49.152;8.302;2024-01-27T13:00:23;102258.88;;;10.86;60.10
58088;BME280;43884;49.152;8.302;2024-01-27T13:03:11;102275.03;;;10.50;61.40
58088;BME280;43884;49.152;8.302;2024-01-27T13:05:53;102276.22;;;10.18;60.08
58088;BME280;43884;49.152;8.302;2024-01-27T13:08:29;102274.41;;;10.66;60.12
58088;BME280;43884;49.152;8.302;2024-01-27T13:11:30;102274.34;;;10.86;60.39
58088;BME280;43884;49.152;8.302;2024-01-27T13:14:33;102267.94;;;11.05;60.12
58088;BME280;43884;49.152;8.302;2024-01-27T13:17:17;102256.13;;;10.58;60.95
58088;BME280;43884;49.152;8.302;2024-01-27T13:20:07;102248.81;;;10.59;60.50
58088;BME280;43884;49.152;8.302;2024-01-27T13:25:52;102267.94;;;11.05;60.31
58088;BME280;43884;49.152;8.302;2024-01-27T13:28:46;102256.31;;;10.85;60.26
58088;BME280;43884;49.152;8.302;2024-01-27T13:31:38;102272.44;;;10.58;61.43
58088;BME280;43884;49.152;8.302;2024-01-27T13:34:20;102245.66;;;10.92;59.59
58088;BME280;43884;49.152;8.302;2024-01-27T13:36:58;102248.34;;;11.01;59.90
58088;BME280;43884;49.152;8.302;2024-01-27T13:39:30;102229.94;;;10.85;58.72
58088;BME280;43884;49.152;8.302;2024-01-27T13:42:13;102235.56;;;10.74;59.26
58088;BME280;43884;49.152;8.302;2024-01-27T13:44:48;102248.81;;;10.97;59.71
58088;BME280;43884;49.152;8.302;2024-01-27T13:47:31;102249.97;;;10.94;59.07
58088;BME280;43884;49.152;8.302;2024-01-27T13:50:26;102241.19;;;11.00;58.96
58088;BME280;43884;49.152;8.302;2024-01-27T13:52:56;102231.69;;;10.76;58.39
58088;BME280;43884;49.152;8.302;2024-01-27T13:55:33;102228.34;;;10.65;58.50
58088;BME280;43884;49.152;8.302;2024-01-27T13:58:10;102221.50;;;10.51;57.65
58088;BME280;43884;49.152;8.302;2024-01-27T14:00:48;102238.44;;;10.25;59.59
58088;BME280;43884;49.152;8.302;2024-01-27T14:03:17;102233.81;;;10.55;58.33
58088;BME280;43884;49.152;8.302;2024-01-27T14:05:48;102228.94;;;10.58;58.32
58088;BME280;43884;49.152;8.302;2024-01-27T14:08:34;102226.81;;;10.52;57.63
58088;BME280;43884;49.152;8.302;2024-01-27T14:11:15;102229.25;;;10.45;58.11
58088;BME280;43884;49.152;8.302;2024-01-27T14:17:09;102216.84;;;10.71;58.05
58088;BME280;43884;49.152;8.302;2024-01-27T14:19:54;102214.91;;;10.53;58.68
58088;BME280;43884;49.152;8.302;2024-01-27T14:22:34;102213.34;;;10.41;58.88
58088;BME280;43884;49.152;8.302;2024-01-27T14:25:08;102210.63;;;10.41;59.61
58088;BME280;43884;49.152;8.302;2024-01-27T14:27:39;102205.78;;;10.44;58.03
58088;BME280;43884;49.152;8.302;2024-01-27T14:30:08;102204.19;;;10.42;58.47
58088;BME280;43884;49.152;8.302;2024-01-27T14:32:42;102207.03;;;10.50;58.47
58088;BME280;43884;49.152;8.302;2024-01-27T14:35:17;102210.22;;;10.45;59.00
58088;BME280;43884;49.152;8.302;2024-01-27T14:37:58;102199.44;;;10.54;58.92
58088;BME280;43884;49.152;8.302;2024-01-27T14:40:40;102205.41;;;10.19;59.36
58088;BME280;43884;49.152;8.302;2024-01-27T14:43:16;102204.56;;;9.99;59.87
58088;BME280;43884;49.152;8.302;2024-01-27T14:45:48;102202.56;;;9.91;60.66
58088;BME280;43884;49.152;8.302;2024-01-27T14:48:20;102193.97;;;10.16;59.65
58088;BME280;43884;49.152;8.302;2024-01-27T14:53:41;102198.84;;;10.02;60.18
58088;BME280;43884;49.152;8.302;2024-01-27T14:56:20;102196.28;;;10.01;59.67
58088;BME280;43884;49.152;8.302;2024-01-27T14:58:53;102192.97;;;10.07;59.93
58088;BME280;43884;49.152;8.302;2024-01-27T15:01:25;102197.44;;;9.98;60.28
58088;BME280;43884;49.152;8.302;2024-01-27T15:04:03;102192.00;;;9.88;60.24
58088;BME280;43884;49.152;8.302;2024-01-27T15:06:39;102204.31;;;9.73;60.88
58088;BME280;43884;49.152;8.302;2024-01-27T15:09:16;102210.03;;;9.89;60.94
58088;BME280;43884;49.152;8.302;2024-01-27T15:11:53;102204.31;;;9.63;61.03
58088;BME280;43884;49.152;8.302;2024-01-27T15:14:24;102204.91;;;9.47;61.14
58088;BME280;43884;49.152;8.302;2024-01-27T15:17:06;102209.31;;;9.97;60.83
58088;BME280;43884;49.152;8.302;2024-01-27T15:19:39;102207.59;;;9.66;60.86
58088;BME280;43884;49.152;8.302;2024-01-27T15:22:15;102206.44;;;9.29;61.43
58088;BME280;43884;49.152;8.302;2024-01-27T15:24:51;102206.16;;;9.23;61.89
58088;BME280;43884;49.152;8.302;2024-01-27T15:27:21;102209.81;;;9.02;62.08
58088;BME280;43884;49.152;8.302;2024-01-27T15:29:54;102208.69;;;9.14;61.96
58088;BME280;43884;49.152;8.302;2024-01-27T15:32:22;102206.97;;;9.13;61.87
58088;BME280;43884;49.152;8.302;2024-01-27T15:34:59;102211.81;;;9.10;61.90
58088;BME280;43884;49.152;8.302;2024-01-27T15:37:39;102212.25;;;9.05;61.55
58088;BME280;43884;49.152;8.302;2024-01-27T15:40:09;102224.94;;;8.95;62.75
58088;BME280;43884;49.152;8.302;2024-01-27T15:42:47;102227.88;;;8.82;63.00
58088;BME280;43884;49.152;8.302;2024-01-27T15:45:20;102218.69;;;9.04;62.85
